Time;durP1;ratioP1;P1;durP2;ratioP2;P2;SDS_P1;SDS_P2;PMS_P1;PMS_P2;Temp;Humidity;BMP_temperature;BMP_pressure;BME280_temperature;BME280_humidity;BME280_pressure;Samples;Min_cycle;Max_cycle;Signal;HPM_P1;HPM_P2
2021/12/12 00:02:34;;;;;;;0.40;0.23;;;2.80;99.90;;;;;;4877208;29;20419;-81
2021/12/12 00:05:07;;;;;;;0.20;0.20;;;2.80;99.90;;;;;;4863946;29;20189;-80
2021/12/12 00:07:34;;;;;;;0.10;0.10;;;2.80;99.90;;;;;;4870723;29;20201;-80
2021/12/12 00:10:04;;;;;;;0.33;0.33;;;2.90;99.90;;;;;;4871438;29;20181;-80
2021/12/12 00:12:38;;;;;;;0.20;0.20;;;2.90;99.90;;;;;;4877554;29;20191;-80
2021/12/12 00:15:06;;;;;;;0.10;0.10;;;2.90;99.90;;;;;;4869221;29;20277;-80
2021/12/12 00:17:32;;;;;;;0.20;0.20;;;2.90;99.90;;;;;;4882039;29;20251;-80
2021/12/12 00:19:58;;;;;;;0.10;0.10;;;2.80;99.90;;;;;;4874536;29;20187;-80
2021/12/12 00:22:26;;;;;;;0.50;0.50;;;2.80;99.90;;;;;;4872177;29;20184;-80
2021/12/12 00:24:53;;;;;;;0.40;0.40;;;2.80;99.90;;;;;;4874466;29;20712;-80
2021/12/12 00:27:21;;;;;;;0.20;0.20;;;2.70;99.90;;;;;;4876787;29;20209;-80
2021/12/12 00:29:46;;;;;;;0.10;0.10;;;2.70;99.90;;;;;;4865215;29;20272;-80
2021/12/12 00:32:15;;;;;;;0.30;0.30;;;2.60;99.90;;;;;;4864181;29;20258;-80
2021/12/12 00:34:45;;;;;;;0.20;0.20;;;2.60;99.90;;;;;;4868605;29;20282;-80
2021/12/12 00:37:11;;;;;;;2.83;0.43;;;2.60;99.90;;;;;;4870216;29;20217;-80
2021/12/12 00:39:40;;;;;;;0.40;0.40;;;2.60;99.90;;;;;;4891230;29;20269;-80
2021/12/12 00:42:07;;;;;;;0.20;0.20;;;2.60;99.90;;;;;;4871926;29;20176;-80
2021/12/12 00:44:33;;;;;;;0.20;0.20;;;2.50;99.90;;;;;;4868527;29;20202;-80
2021/12/12 00:47:03;;;;;;;0.50;0.50;;;2.60;99.90;;;;;;4874517;29;20581;-79
2021/12/12 00:49:30;;;;;;;0.10;0.10;;;2.60;99.90;;;;;;4869277;29;20287;-80
2021/12/12 00:51:56;;;;;;;0.17;0.17;;;2.50;99.90;;;;;;4869676;29;20664;-80
2021/12/12 00:54:22;;;;;;;0.10;0.10;;;2.60;99.90;;;;;;4865631;29;20216;-80
2021/12/12 00:56:48;;;;;;;0.50;0.30;;;2.60;99.90;;;;;;4871472;29;20221;-80
2021/12/12 00:59:15;;;;;;;0.20;0.20;;;2.70;99.90;;;;;;4872427;29;20200;-80
2021/12/12 01:01:48;;;;;;;0.37;0.37;;;2.70;99.90;;;;;;4876816;29;20212;-80
2021/12/12 01:04:25;;;;;;;0.40;0.40;;;2.80;99.90;;;;;;4872979;29;20562;-80
2021/12/12 01:06:52;;;;;;;0.17;0.17;;;2.90;99.90;;;;;;4870029;29;20465;-80
2021/12/12 01:09:23;;;;;;;0.20;0.20;;;2.90;99.90;;;;;;4870216;29;20570;-80
2021/12/12 01:11:54;;;;;;;1.00;0.37;;;2.90;99.90;;;;;;4869210;29;20227;-80
2021/12/12 01:14:25;;;;;;;0.13;0.13;;;2.80;99.90;;;;;;4869589;29;20265;-80
2021/12/12 01:16:58;;;;;;;0.20;0.20;;;2.90;99.90;;;;;;4875187;29;20232;-80
2021/12/12 01:19:29;;;;;;;0.13;0.13;;;2.80;99.90;;;;;;4866863;29;20196;-80
2021/12/12 01:22:00;;;;;;;0.13;0.13;;;2.70;99.90;;;;;;4872380;29;20709;-80
2021/12/12 01:24:35;;;;;;;0.23;0.20;;;2.80;99.90;;;;;;4875632;29;20283;-79
2021/12/12 01:27:03;;;;;;;0.30;0.30;;;2.80;99.90;;;;;;4867839;29;20208;-80
2021/12/12 01:29:29;;;;;;;0.10;0.10;;;2.70;99.90;;;;;;4871478;29;20194;-80
2021/12/12 01:31:59;;;;;;;0.03;0.03;;;2.50;99.90;;;;;;4874808;29;20205;-80
2021/12/12 01:34:28;;;;;;;2.83;0.30;;;2.50;99.90;;;;;;4872559;29;20223;-80
2021/12/12 01:39:59;;;;;;;0.10;0.10;;;2.70;99.90;;;;;;4873049;29;20200;-80
2021/12/12 01:42:29;;;;;;;0.20;0.20;;;2.70;99.90;;;;;;4876315;29;20201;-80
2021/12/12 01:45:09;;;;;;;1.73;1.60;;;2.60;99.90;;;;;;4866424;29;20198;-80
2021/12/12 01:47:41;;;;;;;0.47;0.47;;;2.60;99.90;;;;;;4873512;29;20213;-80
2021/12/12 01:50:18;;;;;;;0.57;0.33;;;2.50;99.90;;;;;;4879264;29;20188;-80
2021/12/12 01:52:45;;;;;;;0.10;0.10;;;2.50;99.90;;;;;;4879788;29;20242;-80
2021/12/12 01:55:23;;;;;;;0.10;0.10;;;2.50;99.90;;;;;;4873611;29;20194;-81
2021/12/12 01:57:50;;;;;;;0.13;0.13;;;2.50;99.90;;;;;;4879716;29;20585;-80
2021/12/12 02:00:33;;;;;;;0.53;0.30;;;2.40;99.90;;;;;;4878674;29;20198;-79
2021/12/12 02:03:00;;;;;;;0.40;0.30;;;2.20;99.90;;;;;;4866528;29;20596;-79
2021/12/12 02:05:27;;;;;;;0.87;0.83;;;2.20;99.90;;;;;;4872369;29;20652;-80
2021/12/12 02:07:57;;;;;;;1.00;0.87;;;2.30;99.90;;;;;;4872507;29;20566;-80
2021/12/12 02:10:30;;;;;;;0.10;0.10;;;2.40;99.90;;;;;;4873946;29;20229;-79
2021/12/12 02:13:02;;;;;;;0.43;0.43;;;2.40;99.90;;;;;;4872211;29;20624;-80
2021/12/12 02:15:29;;;;;;;1.27;0.30;;;2.40;99.90;;;;;;4865243;29;20259;-80
2021/12/12 02:17:55;;;;;;;0.20;0.13;;;2.40;99.90;;;;;;4875368;29;20724;-79
2021/12/12 02:20:53;;;;;;;0.10;0.10;;;2.50;99.90;;;;;;4874213;29;20189;-79
2021/12/12 02:37:13;;;;;;;0.20;0.20;;;2.90;99.90;;;;;;4872767;29;20286;-79
2021/12/12 02:39:40;;;;;;;0.30;0.30;;;3.00;99.90;;;;;;4871732;29;20652;-80
2021/12/12 02:42:10;;;;;;;0.13;0.13;;;2.90;99.90;;;;;;4877416;29;20197;-80
2021/12/12 02:44:40;;;;;;;0.10;0.10;;;3.00;99.90;;;;;;4877919;29;20655;-79
2021/12/12 02:47:14;;;;;;;0.70;0.70;;;2.90;99.90;;;;;;4871236;29;20263;-80
2021/12/12 02:52:19;;;;;;;3.30;0.77;;;3.00;99.90;;;;;;4877251;29;20196;-79
2021/12/12 02:54:45;;;;;;;0.20;0.20;;;3.10;99.90;;;;;;4871799;29;20199;-79
2021/12/12 02:57:12;;;;;;;0.40;0.40;;;3.10;99.90;;;;;;4871192;29;20276;-80
2021/12/12 02:59:40;;;;;;;0.20;0.20;;;3.20;99.90;;;;;;4873386;29;20713;-80
2021/12/12 03:02:09;;;;;;;0.10;0.10;;;3.30;99.90;;;;;;4878576;29;20188;-80
2021/12/12 03:04:36;;;;;;;0.30;0.30;;;3.30;99.90;;;;;;4876442;29;20571;-80
2021/12/12 03:07:03;;;;;;;0.50;0.50;;;3.40;99.90;;;;;;4869744;29;20305;-80
2021/12/12 03:09:37;;;;;;;0.10;0.10;;;3.40;99.90;;;;;;4872340;29;20202;-79
2021/12/12 03:12:08;;;;;;;0.27;0.27;;;3.40;99.90;;;;;;4868581;29;20190;-79
2021/12/12 03:14:35;;;;;;;2.63;0.43;;;3.40;99.90;;;;;;4876481;29;20228;-79
2021/12/12 03:17:10;;;;;;;0.63;0.60;;;3.40;99.90;;;;;;4869246;29;20226;-80
2021/12/12 03:19:36;;;;;;;0.47;0.47;;;3.20;99.90;;;;;;4876809;29;20366;-80
2021/12/12 03:22:04;;;;;;;0.30;0.30;;;3.30;99.90;;;;;;4871338;29;20284;-80
2021/12/12 03:24:29;;;;;;;0.10;0.10;;;3.50;99.90;;;;;;4877289;29;20216;-79
2021/12/12 03:27:00;;;;;;;0.33;0.30;;;3.60;99.90;;;;;;4868848;29;20215;-79
2021/12/12 03:29:27;;;;;;;0.10;0.10;;;3.60;99.90;;;;;;4875553;29;20198;-80
2021/12/12 03:31:58;;;;;;;0.20;0.20;;;3.60;99.90;;;;;;4868897;29;20612;-80
2021/12/12 03:34:27;;;;;;;0.10;0.10;;;3.70;99.90;;;;;;4872750;29;20229;-80
2021/12/12 03:36:53;;;;;;;1.23;0.20;;;3.80;99.90;;;;;;4866555;29;20216;-80
2021/12/12 03:39:26;;;;;;;0.27;0.27;;;3.90;99.90;;;;;;4866055;29;20688;-80
2021/12/12 03:41:55;;;;;;;0.47;0.43;;;4.00;99.90;;;;;;4870837;29;20180;-80
2021/12/12 03:44:23;;;;;;;0.10;0.10;;;4.10;99.90;;;;;;4873972;29;20240;-80
2021/12/12 03:46:53;;;;;;;0.10;0.10;;;4.10;99.90;;;;;;4874697;29;20208;-80
2021/12/12 03:49:19;;;;;;;0.10;0.10;;;4.00;99.90;;;;;;4870703;29;20286;-80
2021/12/12 03:51:47;;;;;;;0.63;0.60;;;4.10;99.90;;;;;;4870283;29;20279;-80
2021/12/12 03:54:13;;;;;;;0.20;0.20;;;4.10;99.90;;;;;;4873682;29;20194;-79
2021/12/12 03:56:44;;;;;;;0.57;0.37;;;3.90;99.90;;;;;;4868130;29;20310;-80
2021/12/12 03:59:12;;;;;;;0.40;0.37;;;3.30;99.90;;;;;;4868771;29;20191;-80
2021/12/12 04:01:48;;;;;;;0.10;0.10;;;3.20;99.90;;;;;;4874933;29;20198;-80
2021/12/12 04:04:30;;;;;;;0.87;0.20;;;3.20;99.90;;;;;;4869978;29;20200;-79
2021/12/12 04:06:57;;;;;;;0.23;0.20;;;3.10;99.90;;;;;;4866365;29;20297;-80
2021/12/12 04:09:24;;;;;;;1.60;0.50;;;3.30;99.90;;;;;;4867002;29;20197;-80
2021/12/12 04:12:00;;;;;;;0.30;0.30;;;3.40;99.90;;;;;;4876663;29;20211;-80
2021/12/12 04:14:26;;;;;;;1.37;0.20;;;3.60;99.90;;;;;;4864912;29;20666;-80
2021/12/12 04:16:56;;;;;;;0.60;0.60;;;3.70;99.90;;;;;;4876539;29;20685;-80
2021/12/12 04:19:22;;;;;;;1.23;0.50;;;3.50;99.90;;;;;;4866665;29;20271;-80
2021/12/12 04:21:48;;;;;;;0.57;0.57;;;3.50;99.90;;;;;;4871762;29;20205;-80
2021/12/12 04:24:24;;;;;;;0.50;0.50;;;3.70;99.90;;;;;;4874649;29;20194;-80
2021/12/12 04:26:50;;;;;;;0.20;0.20;;;3.70;99.90;;;;;;4874489;29;20210;-80
2021/12/12 04:29:24;;;;;;;0.23;0.23;;;3.40;99.90;;;;;;4870002;29;20218;-80
2021/12/12 04:31:53;;;;;;;0.07;0.07;;;3.30;99.90;;;;;;4876498;29;20207;-80
2021/12/12 04:34:23;;;;;;;0.10;0.10;;;3.40;99.90;;;;;;4869375;29;20255;-80
2021/12/12 04:36:49;;;;;;;0.57;0.43;;;3.20;99.90;;;;;;4872100;29;20321;-80
2021/12/12 04:39:20;;;;;;;0.90;0.37;;;3.20;99.90;;;;;;4868322;29;20197;-81
2021/12/12 04:41:48;;;;;;;0.37;0.23;;;3.20;99.90;;;;;;4871032;29;20194;-80
2021/12/12 04:44:22;;;;;;;0.40;0.10;;;3.40;99.90;;;;;;4878197;29;20194;-80
2021/12/12 04:50:29;;;;;;;0.33;0.33;;;3.70;99.90;;;;;;4839684;29;20230;-80
2021/12/12 04:52:58;;;;;;;0.00;0.00;;;3.60;99.90;;;;;;4871477;29;20247;-80
2021/12/12 04:55:32;;;;;;;0.10;0.10;;;3.50;99.90;;;;;;4870996;29;20242;-79
2021/12/12 04:58:18;;;;;;;0.40;0.40;;;3.60;99.90;;;;;;4865925;29;20269;-80
2021/12/12 05:00:54;;;;;;;0.17;0.17;;;3.60;99.90;;;;;;4871582;29;20198;-80
2021/12/12 05:03:34;;;;;;;0.40;0.40;;;3.50;99.90;;;;;;4869715;29;20616;-80
2021/12/12 05:06:15;;;;;;;0.77;0.17;;;3.50;99.90;;;;;;4874125;29;20233;-80
2021/12/12 05:08:50;;;;;;;0.30;0.30;;;3.70;99.90;;;;;;4868956;29;20230;-80
2021/12/12 05:11:33;;;;;;;0.10;0.10;;;3.90;99.90;;;;;;4882432;29;20196;-80
2021/12/12 05:14:07;;;;;;;1.20;0.63;;;4.00;99.90;;;;;;4878232;29;20761;-80
2021/12/12 05:16:38;;;;;;;0.30;0.30;;;4.10;99.90;;;;;;4877821;29;20232;-80
2021/12/12 05:19:12;;;;;;;0.20;0.20;;;4.10;99.90;;;;;;4883027;29;20191;-80
2021/12/12 05:21:45;;;;;;;0.13;0.13;;;4.20;99.90;;;;;;4877170;29;20198;-80
2021/12/12 05:24:13;;;;;;;0.47;0.47;;;4.30;99.90;;;;;;4882786;29;20199;-79
2021/12/12 05:26:52;;;;;;;0.10;0.10;;;4.30;99.90;;;;;;4876006;29;20234;-79
2021/12/12 05:29:27;;;;;;;0.70;0.70;;;4.20;99.90;;;;;;4877881;29;20589;-79
2021/12/12 05:31:55;;;;;;;0.33;0.30;;;4.30;99.90;;;;;;4879206;29;20197;-79
2021/12/12 05:34:27;;;;;;;2.03;0.53;;;4.00;99.90;;;;;;4871433;29;20192;-80
2021/12/12 05:36:53;;;;;;;0.10;0.10;;;3.60;99.90;;;;;;4877571;29;20245;-79
2021/12/12 05:39:20;;;;;;;0.20;0.20;;;3.30;99.90;;;;;;4876656;29;20612;-80
2021/12/12 05:41:47;;;;;;;1.73;0.80;;;3.20;99.90;;;;;;4874305;29;20552;-79
2021/12/12 05:44:14;;;;;;;0.20;0.20;;;3.00;99.90;;;;;;4874753;29;20646;-80
2021/12/12 05:46:40;;;;;;;0.60;0.60;;;2.80;99.90;;;;;;4874544;29;20589;-79
2021/12/12 05:49:06;;;;;;;0.20;0.20;;;2.80;99.90;;;;;;4874551;29;20193;-79
2021/12/12 05:51:33;;;;;;;0.30;0.30;;;2.70;99.90;;;;;;4876247;29;20191;-79
2021/12/12 05:53:59;;;;;;;0.43;0.30;;;2.70;99.90;;;;;;4877973;29;20194;-80
2021/12/12 05:56:28;;;;;;;0.47;0.40;;;2.70;99.90;;;;;;4869036;29;20229;-80
2021/12/12 05:58:55;;;;;;;0.20;0.20;;;2.70;99.90;;;;;;4875987;29;20193;-79
2021/12/12 06:01:22;;;;;;;0.20;0.20;;;2.80;99.90;;;;;;4874873;29;20603;-80
2021/12/12 06:03:48;;;;;;;0.63;0.33;;;2.90;99.90;;;;;;4895923;29;20215;-79
2021/12/12 06:06:18;;;;;;;0.17;0.17;;;2.90;99.90;;;;;;4872966;29;20214;-79
2021/12/12 06:08:45;;;;;;;0.60;0.60;;;3.00;99.90;;;;;;4871333;29;20190;-80
2021/12/12 06:11:12;;;;;;;0.47;0.47;;;3.20;99.90;;;;;;4869954;29;20190;-79
2021/12/12 06:13:39;;;;;;;0.23;0.23;;;3.40;99.90;;;;;;4873488;29;20200;-79
2021/12/12 06:16:06;;;;;;;0.30;0.30;;;3.50;99.90;;;;;;4879368;29;20207;-79
2021/12/12 06:18:33;;;;;;;0.23;0.23;;;3.30;99.90;;;;;;4876146;29;20780;-79
2021/12/12 06:20:59;;;;;;;0.33;0.33;;;3.20;99.90;;;;;;4881325;29;20241;-79
2021/12/12 06:23:26;;;;;;;0.50;0.50;;;3.00;99.90;;;;;;4876480;29;20197;-80
2021/12/12 06:25:52;;;;;;;0.10;0.10;;;3.00;99.90;;;;;;4871638;29;20244;-80
2021/12/12 06:28:25;;;;;;;0.77;0.23;;;2.80;99.90;;;;;;4872969;29;20232;-79
2021/12/12 06:30:51;;;;;;;1.63;0.53;;;2.80;99.90;;;;;;4870838;29;20559;-79
2021/12/12 06:33:16;;;;;;;0.20;0.20;;;2.90;99.90;;;;;;4867983;29;20231;-80
2021/12/12 06:35:42;;;;;;;0.77;0.30;;;2.80;99.90;;;;;;4879153;29;20301;-79
2021/12/12 06:38:10;;;;;;;0.40;0.40;;;2.70;99.90;;;;;;4874761;29;20211;-80
2021/12/12 06:40:37;;;;;;;0.43;0.30;;;2.80;99.90;;;;;;4876833;29;20668;-80
2021/12/12 06:43:05;;;;;;;0.23;0.23;;;2.80;99.90;;;;;;4872825;29;20186;-80
2021/12/12 06:45:32;;;;;;;0.20;0.20;;;2.80;99.90;;;;;;4884094;29;20269;-80
2021/12/12 06:47:58;;;;;;;0.20;0.20;;;2.70;99.90;;;;;;4875494;29;20322;-80
2021/12/12 06:50:26;;;;;;;0.50;0.20;;;2.70;99.90;;;;;;4875595;29;20230;-81
2021/12/12 06:52:53;;;;;;;0.60;0.60;;;2.80;99.90;;;;;;4884857;29;20189;-81
2021/12/12 06:55:20;;;;;;;0.37;0.23;;;2.80;99.90;;;;;;4876674;29;20264;-80
2021/12/12 06:57:46;;;;;;;0.30;0.30;;;2.90;99.90;;;;;;4872308;29;20257;-80
2021/12/12 07:00:16;;;;;;;0.30;0.30;;;2.80;99.90;;;;;;4872549;29;20558;-80
2021/12/12 07:02:43;;;;;;;1.97;1.27;;;2.80;99.90;;;;;;4877127;29;20243;-79
2021/12/12 07:05:16;;;;;;;0.83;0.83;;;3.00;99.90;;;;;;4872804;29;20243;-79
2021/12/12 07:07:42;;;;;;;0.97;0.50;;;3.20;99.90;;;;;;4876501;29;20234;-79
2021/12/12 07:10:10;;;;;;;0.27;0.27;;;3.20;99.90;;;;;;4867388;29;20193;-80
2021/12/12 07:12:39;;;;;;;0.53;0.50;;;2.90;99.90;;;;;;4875804;29;20206;-79
2021/12/12 07:15:07;;;;;;;0.33;0.33;;;2.80;99.90;;;;;;4871890;29;20272;-81
2021/12/12 07:17:33;;;;;;;0.40;0.40;;;2.90;99.90;;;;;;4874054;29;20220;-80
2021/12/12 07:19:59;;;;;;;0.30;0.30;;;3.00;99.90;;;;;;4872544;29;20197;-80
2021/12/12 07:22:25;;;;;;;0.40;0.40;;;3.00;99.90;;;;;;4879048;29;20195;-81
2021/12/12 07:24:51;;;;;;;1.33;0.57;;;2.90;99.90;;;;;;4877433;29;20182;-82
2021/12/12 07:27:17;;;;;;;0.20;0.20;;;2.90;99.90;;;;;;4874152;29;20214;-82
2021/12/12 07:29:43;;;;;;;0.40;0.40;;;2.80;99.90;;;;;;4875344;29;20205;-82
2021/12/12 07:32:09;;;;;;;0.53;0.43;;;2.80;99.90;;;;;;4869341;29;20202;-82
2021/12/12 07:34:37;;;;;;;0.57;0.57;;;2.80;99.90;;;;;;4877756;29;20190;-82
2021/12/12 07:37:05;;;;;;;0.63;0.63;;;2.80;99.90;;;;;;4872757;29;20298;-82
2021/12/12 07:39:32;;;;;;;0.30;0.20;;;3.10;99.90;;;;;;4873318;29;20230;-81
2021/12/12 07:42:00;;;;;;;0.53;0.53;;;3.00;99.90;;;;;;4873447;29;20612;-81
2021/12/12 07:44:29;;;;;;;0.60;0.60;;;3.00;99.90;;;;;;4874251;29;20335;-80
2021/12/12 07:46:57;;;;;;;0.27;0.27;;;3.00;99.90;;;;;;4868702;29;20679;-80
2021/12/12 07:49:27;;;;;;;0.20;0.20;;;2.90;99.90;;;;;;4866091;29;20269;-80
2021/12/12 07:51:53;;;;;;;0.10;0.10;;;2.90;99.90;;;;;;4865881;29;20199;-80
2021/12/12 07:54:19;;;;;;;0.50;0.37;;;2.80;99.90;;;;;;4870238;29;20195;-80
2021/12/12 07:56:46;;;;;;;0.23;0.23;;;2.80;99.90;;;;;;4868174;29;20219;-80
2021/12/12 07:59:15;;;;;;;0.30;0.30;;;2.80;99.90;;;;;;4865287;29;20557;-80
2021/12/12 08:01:45;;;;;;;0.80;0.80;;;2.90;99.90;;;;;;4878518;29;20190;-80
2021/12/12 08:04:12;;;;;;;0.10;0.10;;;3.20;99.90;;;;;;4875981;29;20190;-80
2021/12/12 08:06:38;;;;;;;1.07;0.20;;;3.50;99.90;;;;;;4878244;29;20243;-81
2021/12/12 08:09:04;;;;;;;0.10;0.10;;;3.80;99.90;;;;;;4879348;29;20194;-81
2021/12/12 08:11:33;;;;;;;0.30;0.30;;;4.00;99.90;;;;;;4868491;29;20195;-80
2021/12/12 08:14:01;;;;;;;0.20;0.20;;;4.10;99.90;;;;;;4871347;29;20237;-80
2021/12/12 08:16:28;;;;;;;0.00;0.00;;;4.20;99.90;;;;;;4873653;29;20283;-80
2021/12/12 08:18:56;;;;;;;0.10;0.10;;;4.30;99.90;;;;;;4873883;29;20192;-81
2021/12/12 08:21:23;;;;;;;0.13;0.13;;;4.40;99.90;;;;;;4878561;29;20187;-81
2021/12/12 08:23:49;;;;;;;0.10;0.10;;;4.40;99.90;;;;;;4868192;29;20198;-80
2021/12/12 08:26:14;;;;;;;0.70;0.70;;;4.50;99.90;;;;;;4871376;29;20686;-81
2021/12/12 08:28:43;;;;;;;0.13;0.13;;;4.60;99.90;;;;;;4869342;29;20200;-80
2021/12/12 08:31:10;;;;;;;0.20;0.20;;;4.70;99.90;;;;;;4874645;29;20195;-81
2021/12/12 08:33:36;;;;;;;0.37;0.37;;;4.60;99.90;;;;;;4878211;29;20205;-81
2021/12/12 08:36:02;;;;;;;2.90;0.97;;;4.60;99.90;;;;;;4877515;29;20215;-81
2021/12/12 08:38:28;;;;;;;0.37;0.37;;;4.70;99.90;;;;;;4876252;29;20221;-80
2021/12/12 08:40:58;;;;;;;0.30;0.30;;;4.80;99.90;;;;;;4881141;29;20186;-81
2021/12/12 08:43:26;;;;;;;0.30;0.30;;;4.90;99.90;;;;;;4877205;29;20381;-81
2021/12/12 08:46:05;;;;;;;0.23;0.23;;;4.90;99.90;;;;;;4882434;29;20859;-81
2021/12/12 08:48:33;;;;;;;0.10;0.10;;;5.00;99.90;;;;;;4873219;29;20196;-81
2021/12/12 08:51:06;;;;;;;0.10;0.10;;;5.10;99.90;;;;;;4875608;29;20199;-80
2021/12/12 08:53:33;;;;;;;0.70;0.70;;;5.10;99.90;;;;;;4873057;29;20200;-80
2021/12/12 08:55:59;;;;;;;0.20;0.20;;;5.20;99.90;;;;;;4877533;29;20219;-80
2021/12/12 08:58:28;;;;;;;0.10;0.10;;;5.20;99.90;;;;;;4877825;29;20191;-81
2021/12/12 09:01:09;;;;;;;0.13;0.13;;;5.10;99.90;;;;;;4871453;29;20188;-81
2021/12/12 09:03:53;;;;;;;1.33;0.83;;;4.70;99.90;;;;;;4882920;29;20190;-81
2021/12/12 09:06:27;;;;;;;0.20;0.20;;;4.80;99.90;;;;;;4878005;29;20924;-81
2021/12/12 09:08:58;;;;;;;0.50;0.50;;;5.00;99.90;;;;;;4877880;29;20875;-81
2021/12/12 09:11:29;;;;;;;0.20;0.20;;;5.10;99.90;;;;;;4877534;29;20214;-81
2021/12/12 09:13:55;;;;;;;0.20;0.20;;;5.20;99.90;;;;;;4874044;29;20188;-81
2021/12/12 09:16:26;;;;;;;0.20;0.20;;;5.30;99.90;;;;;;4877727;29;20228;-80
2021/12/12 09:18:58;;;;;;;0.10;0.10;;;5.40;99.90;;;;;;4880702;29;20267;-81
2021/12/12 09:21:56;;;;;;;0.20;0.20;;;5.40;99.90;;;;;;4874283;29;20189;-81
2021/12/12 09:24:26;;;;;;;3.50;0.33;;;5.50;99.90;;;;;;4876669;29;20196;-80
2021/12/12 09:26:56;;;;;;;0.60;0.60;;;5.50;99.90;;;;;;4880382;29;20586;-81
2021/12/12 09:29:26;;;;;;;0.20;0.20;;;5.50;99.90;;;;;;4890847;29;20189;-81
2021/12/12 09:32:10;;;;;;;0.27;0.27;;;5.40;99.90;;;;;;4873812;29;20184;-81
2021/12/12 09:34:40;;;;;;;0.20;0.20;;;5.40;99.90;;;;;;4869294;29;20193;-81
2021/12/12 09:37:19;;;;;;;0.10;0.10;;;5.50;99.90;;;;;;4873698;29;20707;-80
2021/12/12 09:39:56;;;;;;;0.40;0.40;;;5.50;99.90;;;;;;4896378;29;20647;-81
2021/12/12 09:42:53;;;;;;;0.10;0.10;;;5.50;99.90;;;;;;4869618;29;20196;-80
2021/12/12 09:45:39;;;;;;;0.10;0.10;;;5.60;99.90;;;;;;4872742;29;20181;-81
2021/12/12 09:52:09;;;;;;;0.10;0.10;;;5.70;99.90;;;;;;4874354;29;20183;-80
2021/12/12 09:55:05;;;;;;;0.20;0.20;;;5.70;99.90;;;;;;4867384;29;20273;-81
2021/12/12 09:57:42;;;;;;;0.40;0.40;;;5.70;99.90;;;;;;4874419;29;20592;-80
2021/12/12 10:00:26;;;;;;;0.40;0.40;;;5.80;99.90;;;;;;4877520;29;20196;-80
2021/12/12 10:03:06;;;;;;;0.13;0.13;;;5.70;99.90;;;;;;4872870;29;21154;-81
2021/12/12 10:05:52;;;;;;;0.30;0.30;;;5.70;99.90;;;;;;4873629;29;20200;-81
2021/12/12 10:08:33;;;;;;;0.23;0.23;;;5.70;99.90;;;;;;4877577;29;20192;-81
2021/12/12 10:11:16;;;;;;;0.10;0.10;;;5.70;99.90;;;;;;4873459;29;20195;-82
2021/12/12 10:13:47;;;;;;;0.20;0.20;;;5.80;99.90;;;;;;4874161;29;20210;-82
2021/12/12 10:16:39;;;;;;;0.13;0.13;;;5.80;99.90;;;;;;4886153;29;20698;-81
2021/12/12 10:19:27;;;;;;;0.10;0.10;;;5.80;99.90;;;;;;4872136;29;20192;-82
2021/12/12 10:22:01;;;;;;;0.10;0.10;;;5.80;99.90;;;;;;4880219;29;20215;-81
2021/12/12 10:24:51;;;;;;;0.20;0.20;;;5.70;99.90;;;;;;4876676;29;20183;-81
2021/12/12 10:27:54;;;;;;;0.20;0.20;;;5.80;99.90;;;;;;4877747;29;20235;-81
2021/12/12 10:30:31;;;;;;;0.10;0.10;;;5.70;99.90;;;;;;4878903;29;20190;-81
2021/12/12 10:33:18;;;;;;;0.10;0.10;;;5.80;99.90;;;;;;4879747;29;20184;-81
2021/12/12 10:36:13;;;;;;;0.10;0.10;;;5.70;99.90;;;;;;4879127;29;20303;-81
2021/12/12 10:39:07;;;;;;;0.40;0.40;;;5.80;99.90;;;;;;4875844;29;20267;-82
2021/12/12 10:41:45;;;;;;;0.20;0.20;;;5.80;99.90;;;;;;4874005;29;20202;-81
2021/12/12 10:44:30;;;;;;;0.10;0.10;;;5.80;99.90;;;;;;4877651;29;20670;-81
2021/12/12 10:47:16;;;;;;;0.27;0.27;;;5.80;99.90;;;;;;4871114;29;20271;-82
2021/12/12 10:50:02;;;;;;;0.37;0.37;;;5.90;99.90;;;;;;4873610;29;20219;-82
2021/12/12 10:52:37;;;;;;;0.20;0.20;;;5.80;99.90;;;;;;4878456;29;20246;-82
2021/12/12 10:55:21;;;;;;;0.10;0.10;;;5.80;99.90;;;;;;4868653;29;20191;-82
2021/12/12 10:57:57;;;;;;;0.10;0.10;;;5.90;99.90;;;;;;4880499;29;20299;-81
2021/12/12 11:00:29;;;;;;;0.20;0.20;;;6.00;99.90;;;;;;4874493;29;20196;-81
2021/12/12 11:03:11;;;;;;;0.27;0.27;;;5.90;99.90;;;;;;4878996;29;20552;-81
2021/12/12 11:05:42;;;;;;;0.10;0.10;;;5.70;99.90;;;;;;4869757;29;20283;-80
2021/12/12 11:08:23;;;;;;;0.07;0.07;;;5.70;99.90;;;;;;4876497;29;20695;-81
2021/12/12 11:10:53;;;;;;;3.50;0.20;;;5.60;99.90;;;;;;4870230;29;20212;-81
2021/12/12 11:13:33;;;;;;;0.10;0.10;;;5.70;99.90;;;;;;4892709;29;20193;-82
2021/12/12 11:16:33;;;;;;;0.30;0.30;;;5.70;99.90;;;;;;4868117;29;20745;-81
2021/12/12 11:19:14;;;;;;;0.30;0.23;;;5.70;99.90;;;;;;4869147;29;20248;-81
2021/12/12 11:21:45;;;;;;;0.97;0.97;;;5.80;99.90;;;;;;4876168;29;20203;-81
2021/12/12 11:24:30;;;;;;;0.10;0.10;;;5.80;99.90;;;;;;4878667;29;20597;-81
2021/12/12 11:27:06;;;;;;;1.03;0.20;;;5.80;99.90;;;;;;4872070;29;20208;-81
2021/12/12 11:29:45;;;;;;;0.40;0.40;;;5.90;99.90;;;;;;4875066;29;20282;-81
2021/12/12 11:32:20;;;;;;;0.20;0.20;;;5.90;99.90;;;;;;4877949;29;20184;-81
2021/12/12 11:34:50;;;;;;;0.23;0.23;;;6.00;99.90;;;;;;4874253;29;20232;-81
2021/12/12 11:37:26;;;;;;;5.00;0.60;;;5.80;99.90;;;;;;4875703;29;20254;-81
2021/12/12 11:40:02;;;;;;;0.10;0.10;;;5.90;99.90;;;;;;4879083;29;20210;-81
2021/12/12 11:42:33;;;;;;;0.20;0.20;;;6.00;99.90;;;;;;4870895;29;20562;-81
2021/12/12 11:45:17;;;;;;;0.10;0.10;;;6.00;99.90;;;;;;4876264;29;20278;-81
2021/12/12 11:48:09;;;;;;;0.30;0.30;;;6.10;99.90;;;;;;4873202;29;20587;-81
2021/12/12 11:50:42;;;;;;;0.20;0.20;;;6.10;99.90;;;;;;4874128;29;20216;-81
2021/12/12 11:53:24;;;;;;;0.57;0.43;;;6.10;99.90;;;;;;4875608;29;20654;-81
2021/12/12 11:56:17;;;;;;;0.10;0.10;;;6.10;99.90;;;;;;4866582;29;20235;-81
2021/12/12 11:59:04;;;;;;;0.17;0.17;;;6.00;99.90;;;;;;4871646;29;20259;-81
2021/12/12 12:01:49;;;;;;;2.30;0.17;;;6.10;99.90;;;;;;4874617;29;20247;-81
2021/12/12 12:04:56;;;;;;;0.20;0.20;;;6.10;99.90;;;;;;4875092;29;20246;-81
2021/12/12 12:07:44;;;;;;;0.30;0.30;;;6.20;99.90;;;;;;4876731;29;20225;-81
2021/12/12 12:10:47;;;;;;;0.83;0.63;;;6.10;99.90;;;;;;4880526;29;20263;-81
2021/12/12 12:13:27;;;;;;;0.10;0.10;;;6.20;99.90;;;;;;4869005;29;20561;-81
2021/12/12 12:16:00;;;;;;;0.63;0.50;;;6.20;99.90;;;;;;4869071;29;20219;-80
2021/12/12 12:18:47;;;;;;;1.80;1.10;;;6.30;99.90;;;;;;4876158;29;20199;-80
2021/12/12 12:21:27;;;;;;;0.20;0.20;;;6.20;99.90;;;;;;4877200;29;20203;-81
2021/12/12 12:26:54;;;;;;;0.40;0.40;;;6.30;99.90;;;;;;4876575;29;20268;-81
2021/12/12 12:29:32;;;;;;;0.10;0.10;;;6.30;99.90;;;;;;4875087;29;20191;-81
2021/12/12 12:32:07;;;;;;;0.10;0.10;;;6.40;99.90;;;;;;4873685;29;20198;-81
2021/12/12 12:34:44;;;;;;;0.10;0.10;;;6.50;99.90;;;;;;4872138;29;20228;-81
2021/12/12 12:37:48;;;;;;;0.30;0.30;;;6.50;99.90;;;;;;4872219;29;20249;-81
2021/12/12 12:40:51;;;;;;;0.27;0.23;;;6.50;99.90;;;;;;4877537;29;20219;-81
2021/12/12 12:43:54;;;;;;;0.20;0.20;;;6.50;99.90;;;;;;4875798;29;20188;-81
2021/12/12 12:46:57;;;;;;;0.10;0.10;;;6.60;99.90;;;;;;4869013;29;20219;-81
2021/12/12 12:50:03;;;;;;;0.50;0.50;;;6.40;99.90;;;;;;4876419;29;20191;-81
2021/12/12 12:52:47;;;;;;;0.10;0.10;;;6.30;99.90;;;;;;4872579;29;20179;-82
2021/12/12 12:55:24;;;;;;;0.20;0.20;;;6.40;99.90;;;;;;4872545;29;20183;-82
2021/12/12 12:57:54;;;;;;;0.43;0.37;;;6.50;99.90;;;;;;4873266;29;20209;-81
2021/12/12 13:00:23;;;;;;;0.23;0.23;;;6.60;99.90;;;;;;4870252;29;20189;-82
2021/12/12 13:03:08;;;;;;;0.20;0.20;;;6.60;99.90;;;;;;4866947;29;20191;-81
2021/12/12 13:06:02;;;;;;;1.13;0.90;;;6.60;99.90;;;;;;4865655;29;20194;-82
2021/12/12 13:08:46;;;;;;;0.20;0.20;;;6.70;99.90;;;;;;4878217;29;20227;-82
2021/12/12 13:11:15;;;;;;;0.20;0.20;;;6.70;99.90;;;;;;4876957;29;20181;-82
2021/12/12 13:13:58;;;;;;;0.13;0.13;;;6.80;99.90;;;;;;4876910;29;20284;-82
2021/12/12 13:16:43;;;;;;;1.20;0.70;;;6.80;99.90;;;;;;4867458;29;20232;-82
2021/12/12 13:19:45;;;;;;;0.20;0.20;;;6.80;99.90;;;;;;4873687;29;20184;-81
2021/12/12 13:22:26;;;;;;;0.40;0.40;;;6.70;99.90;;;;;;4843318;29;20288;-81
2021/12/12 13:25:15;;;;;;;0.30;0.30;;;6.80;99.90;;;;;;4867927;29;20248;-82
2021/12/12 13:28:26;;;;;;;1.93;1.80;;;6.80;99.90;;;;;;4891032;29;20220;-82
2021/12/12 13:31:35;;;;;;;0.20;0.20;;;6.80;99.90;;;;;;4874008;29;20284;-82
2021/12/12 13:34:04;;;;;;;0.30;0.30;;;6.70;99.90;;;;;;4868272;29;20200;-82
2021/12/12 13:36:55;;;;;;;0.30;0.30;;;6.60;99.90;;;;;;4871180;29;20595;-82
2021/12/12 13:39:51;;;;;;;0.10;0.10;;;6.50;99.90;;;;;;4871203;29;20199;-82
2021/12/12 13:42:34;;;;;;;0.10;0.10;;;6.40;99.90;;;;;;4879700;29;20193;-82
2021/12/12 13:45:13;;;;;;;0.43;0.30;;;5.90;99.90;;;;;;4876844;29;20241;-82
2021/12/12 13:48:05;;;;;;;1.27;0.30;;;5.80;99.90;;;;;;4878125;29;20216;-82
2021/12/12 13:50:34;;;;;;;0.17;0.17;;;5.90;99.90;;;;;;4876690;29;20206;-82
2021/12/12 13:53:10;;;;;;;1.90;0.20;;;6.10;99.90;;;;;;4870902;29;20603;-82
2021/12/12 13:55:57;;;;;;;0.20;0.20;;;6.20;99.90;;;;;;4875881;29;20195;-82
2021/12/12 13:58:34;;;;;;;0.20;0.20;;;6.20;99.90;;;;;;4874278;29;20199;-82
2021/12/12 14:01:16;;;;;;;0.10;0.10;;;6.30;99.90;;;;;;4875495;29;20351;-82
2021/12/12 14:04:06;;;;;;;0.10;0.10;;;6.00;99.90;;;;;;4869369;29;20211;-82